createdAt,value
2018-12-07T00:00:31.604Z,9.20
2018-12-07T00:02:59.176Z,9.20
2018-12-07T00:05:26.746Z,9.23
2018-12-07T00:07:54.283Z,9.27
2018-12-07T00:10:21.766Z,9.28
2018-12-07T00:12:49.260Z,9.25
2018-12-07T00:15:16.742Z,9.29
2018-12-07T00:17:44.228Z,9.34
2018-12-07T00:20:11.729Z,9.36
2018-12-07T00:22:39.187Z,9.43
2018-12-07T00:25:06.716Z,9.41
2018-12-07T00:27:34.197Z,9.53
2018-12-07T00:30:01.676Z,9.57
2018-12-07T00:32:29.145Z,9.56
2018-12-07T00:34:56.639Z,9.64
2018-12-07T00:37:24.122Z,9.58
2018-12-07T00:39:51.663Z,9.59
2018-12-07T00:42:19.155Z,9.56
2018-12-07T00:44:48.336Z,9.59
2018-12-07T00:47:15.991Z,9.63
2018-12-07T00:49:43.467Z,9.70
2018-12-07T00:52:10.940Z,9.63
2018-12-07T00:54:38.421Z,9.69
2018-12-07T00:57:05.967Z,9.63
2018-12-07T00:59:33.445Z,9.75
2018-12-07T01:02:01.036Z,9.74
2018-12-07T01:04:28.493Z,9.75
2018-12-07T01:06:56.049Z,9.74
2018-12-07T01:09:23.544Z,9.79
2018-12-07T01:11:51.008Z,9.67
2018-12-07T01:14:18.495Z,9.72
2018-12-07T01:16:46.049Z,9.82
2018-12-07T01:19:13.564Z,9.84
2018-12-07T01:21:41.012Z,9.87
2018-12-07T01:24:08.483Z,9.84
2018-12-07T01:26:36.103Z,9.83
2018-12-07T01:29:03.579Z,9.90
2018-12-07T01:31:31.073Z,9.94
2018-12-07T01:33:58.542Z,9.92
2018-12-07T01:36:26.053Z,9.91
2018-12-07T01:38:53.493Z,9.88
2018-12-07T01:41:20.976Z,9.94
2018-12-07T01:43:48.463Z,9.97
2018-12-07T01:46:15.935Z,10.05
2018-12-07T01:48:43.510Z,9.95
2018-12-07T01:51:10.986Z,10.00
2018-12-07T01:53:38.508Z,10.07
2018-12-07T01:56:05.997Z,10.07
2018-12-07T01:58:33.451Z,10.06
2018-12-07T02:01:04.879Z,10.08
2018-12-07T02:03:32.365Z,10.11
2018-12-07T02:05:59.816Z,10.05
2018-12-07T02:08:27.266Z,10.05
2018-12-07T02:10:54.845Z,10.02
2018-12-07T02:13:22.378Z,10.06
2018-12-07T02:15:49.841Z,10.07
2018-12-07T02:18:17.347Z,10.03
2018-12-07T02:20:44.805Z,10.02
2018-12-07T02:23:12.273Z,10.08
2018-12-07T02:25:39.735Z,10.08
2018-12-07T02:28:07.203Z,10.10
2018-12-07T02:30:34.799Z,10.19
2018-12-07T02:33:02.359Z,10.19
2018-12-07T02:35:29.833Z,10.14
2018-12-07T02:37:57.310Z,10.17
2018-12-07T02:40:24.850Z,10.17
2018-12-07T02:42:52.307Z,10.15
2018-12-07T02:45:19.797Z,10.19
2018-12-07T02:47:47.340Z,10.14
2018-12-07T02:50:14.923Z,10.17
2018-12-07T02:52:42.401Z,10.16
2018-12-07T02:55:09.852Z,10.14
2018-12-07T02:57:38.138Z,10.13
2018-12-07T03:00:06.795Z,10.15
2018-12-07T03:02:34.281Z,10.11
2018-12-07T03:05:01.773Z,10.04
2018-12-07T03:07:29.258Z,10.13
2018-12-07T03:09:56.710Z,10.10
2018-12-07T03:12:24.204Z,10.02
2018-12-07T03:14:51.678Z,10.11
2018-12-07T03:17:19.180Z,10.06
2018-12-07T03:19:46.638Z,10.03
2018-12-07T03:22:14.187Z,10.05
2018-12-07T03:24:41.652Z,9.89
2018-12-07T03:27:09.128Z,9.95
2018-12-07T03:29:36.602Z,9.96
2018-12-07T03:32:04.075Z,9.99
2018-12-07T03:34:31.736Z,9.96
2018-12-07T03:36:59.212Z,10.01
2018-12-07T03:39:26.699Z,10.00
2018-12-07T03:41:54.196Z,9.92
2018-12-07T03:44:21.638Z,9.87
2018-12-07T03:46:49.114Z,9.75
2018-12-07T03:49:16.596Z,9.69
2018-12-07T03:51:44.071Z,9.87
2018-12-07T03:54:11.553Z,9.82
2018-12-07T03:56:39.010Z,9.75
2018-12-07T03:59:06.494Z,9.90
2018-12-07T04:01:33.939Z,9.82
2018-12-07T04:04:01.415Z,9.86
2018-12-07T04:06:28.903Z,9.84
2018-12-07T04:08:56.392Z,9.85
2018-12-07T04:11:23.904Z,9.88
2018-12-07T04:13:51.385Z,9.93
2018-12-07T04:16:18.872Z,9.80
2018-12-07T04:18:46.489Z,9.88
2018-12-07T04:21:13.933Z,9.90
2018-12-07T04:23:41.406Z,9.93
2018-12-07T04:26:08.886Z,9.94
2018-12-07T04:28:36.386Z,9.87
2018-12-07T04:31:04.064Z,9.89
2018-12-07T04:33:31.630Z,10.02
2018-12-07T04:36:07.155Z,10.05
2018-12-07T04:38:28.571Z,10.09
2018-12-07T04:40:56.078Z,10.14
2018-12-07T04:43:23.561Z,10.09
2018-12-07T04:45:51.054Z,10.09
2018-12-07T04:48:18.642Z,10.11
2018-12-07T04:50:46.097Z,10.18
2018-12-07T04:53:13.593Z,10.18
2018-12-07T04:55:41.125Z,10.15
2018-12-07T04:58:08.627Z,10.07
2018-12-07T05:00:36.536Z,10.10
2018-12-07T05:03:04.589Z,10.13
2018-12-07T05:05:32.131Z,10.17
2018-12-07T05:07:59.568Z,10.16
2018-12-07T05:10:27.060Z,10.15
2018-12-07T05:12:54.558Z,10.12
2018-12-07T05:15:22.047Z,10.14
2018-12-07T05:17:49.517Z,10.22
2018-12-07T05:20:17.024Z,10.14
2018-12-07T05:22:44.530Z,10.08
2018-12-07T05:25:11.990Z,10.18
2018-12-07T05:27:39.525Z,10.19
2018-12-07T05:30:07.281Z,10.18
2018-12-07T05:32:34.746Z,10.25
2018-12-07T05:35:02.223Z,10.22
2018-12-07T05:37:29.721Z,10.27
2018-12-07T05:39:57.198Z,10.28
2018-12-07T05:42:24.671Z,10.26
2018-12-07T05:44:52.122Z,10.25
2018-12-07T05:47:19.602Z,10.24
2018-12-07T05:49:47.085Z,10.22
2018-12-07T05:52:14.560Z,10.18
2018-12-07T05:54:42.037Z,10.29
2018-12-07T05:57:09.517Z,10.30
2018-12-07T05:59:36.984Z,10.32
2018-12-07T06:02:04.523Z,10.39
2018-12-07T06:04:32.011Z,10.29
2018-12-07T06:06:59.458Z,10.32
2018-12-07T06:09:26.949Z,10.36
2018-12-07T06:11:55.149Z,10.32
2018-12-07T06:14:22.916Z,10.26
2018-12-07T06:16:50.379Z,10.22
2018-12-07T06:19:17.873Z,10.28
2018-12-07T06:21:45.360Z,10.29
2018-12-07T06:24:12.850Z,10.28
2018-12-07T06:26:40.345Z,10.31
2018-12-07T06:29:07.833Z,10.39
2018-12-07T06:31:35.320Z,10.44
2018-12-07T06:34:02.819Z,10.33
2018-12-07T06:36:30.304Z,10.38
2018-12-07T06:38:57.831Z,10.42
2018-12-07T06:41:25.342Z,10.44
2018-12-07T06:43:52.850Z,10.46
2018-12-07T06:46:20.358Z,10.50
2018-12-07T06:49:08.880Z,10.52
2018-12-07T06:51:36.408Z,10.49
2018-12-07T06:54:03.927Z,10.49
2018-12-07T06:56:31.488Z,10.54
2018-12-07T06:58:58.986Z,10.57
2018-12-07T07:01:26.447Z,10.49
2018-12-07T07:03:53.929Z,10.61
2018-12-07T07:06:21.460Z,10.58
2018-12-07T07:08:48.944Z,10.64
2018-12-07T07:11:16.483Z,10.54
2018-12-07T07:13:43.967Z,10.58
2018-12-07T07:16:11.489Z,10.60
2018-12-07T07:18:39.073Z,10.63
2018-12-07T07:21:06.580Z,10.62
2018-12-07T07:23:34.743Z,10.66
2018-12-07T07:26:02.243Z,10.67
2018-12-07T07:28:29.707Z,10.65
2018-12-07T07:30:57.191Z,10.68
2018-12-07T07:33:24.671Z,10.72
2018-12-07T07:35:52.180Z,10.78
2018-12-07T07:38:19.717Z,10.74
2018-12-07T07:40:47.263Z,10.77
2018-12-07T07:43:14.745Z,10.83
2018-12-07T07:45:42.266Z,10.85
2018-12-07T07:48:09.810Z,10.76
2018-12-07T07:50:37.355Z,10.84
2018-12-07T07:53:04.851Z,10.80
2018-12-07T07:55:32.344Z,10.82
2018-12-07T07:57:59.810Z,10.86
2018-12-07T08:00:27.322Z,10.89
2018-12-07T08:02:54.830Z,10.85
2018-12-07T08:05:22.416Z,10.95
2018-12-07T08:07:49.933Z,11.00
2018-12-07T08:10:17.385Z,11.01
2018-12-07T08:12:44.852Z,11.07
2018-12-07T08:15:12.358Z,11.02
2018-12-07T08:17:39.941Z,11.05
2018-12-07T08:20:07.417Z,11.06
2018-12-07T08:22:35.005Z,11.06
2018-12-07T08:25:02.513Z,11.11
2018-12-07T08:27:30.041Z,11.13
2018-12-07T08:29:57.521Z,11.18
2018-12-07T08:32:25.177Z,11.10
2018-12-07T08:34:52.745Z,11.06
2018-12-07T08:37:20.296Z,11.13
2018-12-07T08:39:47.896Z,11.14
2018-12-07T08:42:15.432Z,11.19
2018-12-07T08:44:42.906Z,11.20
2018-12-07T08:47:10.404Z,11.40
2018-12-07T08:49:43.534Z,11.43
2018-12-07T08:52:11.009Z,11.37
2018-12-07T08:54:38.570Z,11.44
2018-12-07T08:57:06.173Z,11.53
2018-12-07T08:59:33.742Z,11.56
2018-12-07T09:02:01.238Z,11.53
2018-12-07T09:04:28.718Z,11.57
2018-12-07T09:06:56.304Z,11.62
2018-12-07T09:09:23.806Z,11.58
2018-12-07T09:11:51.308Z,11.64
2018-12-07T09:14:18.787Z,11.59
2018-12-07T09:16:46.352Z,11.67
2018-12-07T09:19:13.829Z,11.65
2018-12-07T09:21:41.323Z,11.56
2018-12-07T09:24:08.850Z,11.69
2018-12-07T09:26:36.314Z,11.64
2018-12-07T09:29:03.846Z,11.58
2018-12-07T09:31:31.308Z,11.80
2018-12-07T09:33:58.789Z,11.86
2018-12-07T09:36:26.358Z,11.89
2018-12-07T09:38:53.844Z,11.92
2018-12-07T09:41:21.308Z,11.90
2018-12-07T09:43:48.844Z,11.82
2018-12-07T09:46:16.307Z,11.90
2018-12-07T09:48:43.788Z,11.91
2018-12-07T09:51:11.244Z,11.91
2018-12-07T09:53:38.766Z,11.92
2018-12-07T09:56:06.266Z,11.90
2018-12-07T09:58:33.833Z,11.91
2018-12-07T10:01:01.337Z,11.94
2018-12-07T10:03:28.824Z,11.94
2018-12-07T10:05:56.347Z,11.94
2018-12-07T10:08:23.832Z,12.03
2018-12-07T10:10:51.316Z,11.94
2018-12-07T10:13:18.851Z,12.00
2018-12-07T10:15:46.324Z,11.99
2018-12-07T10:18:13.832Z,12.06
2018-12-07T10:20:41.320Z,12.13
2018-12-07T10:23:08.824Z,12.20
2018-12-07T10:25:36.314Z,12.23
2018-12-07T10:28:03.827Z,12.24
2018-12-07T10:30:31.322Z,12.37
2018-12-07T10:32:58.857Z,12.32
2018-12-07T10:35:26.424Z,12.35
2018-12-07T10:37:53.916Z,12.33
2018-12-07T10:40:21.448Z,12.47
2018-12-07T10:42:48.987Z,12.54
2018-12-07T10:45:16.471Z,12.54
2018-12-07T10:47:50.102Z,12.52
2018-12-07T10:50:13.957Z,12.49
2018-12-07T10:52:41.525Z,12.37
2018-12-07T10:55:09.041Z,12.47
2018-12-07T10:57:36.506Z,12.51
2018-12-07T11:00:08.223Z,12.49
2018-12-07T11:02:41.225Z,12.50
2018-12-07T11:05:14.275Z,12.48
2018-12-07T11:07:47.484Z,12.37
2018-12-07T11:10:20.740Z,12.49
2018-12-07T11:12:53.973Z,12.47
2018-12-07T11:15:26.993Z,12.50
2018-12-07T11:25:12.202Z,12.56
2018-12-07T11:27:45.353Z,12.65
2018-12-07T11:30:18.594Z,12.70
2018-12-07T11:32:51.888Z,12.71
2018-12-07T11:35:21.315Z,12.75
2018-12-07T11:37:48.864Z,12.76
2018-12-07T11:40:16.392Z,12.75
2018-12-07T11:42:43.871Z,12.61
2018-12-07T11:45:11.467Z,12.67
2018-12-07T11:47:39.012Z,12.61
2018-12-07T11:50:08.102Z,12.64
2018-12-07T11:52:35.618Z,12.62
2018-12-07T11:55:03.630Z,12.62
2018-12-07T11:57:31.156Z,12.59
2018-12-07T11:59:58.650Z,12.62
2018-12-07T12:02:26.639Z,12.59
2018-12-07T12:04:54.283Z,12.58
2018-12-07T12:07:21.803Z,12.62
2018-12-07T12:09:49.321Z,12.55
2018-12-07T12:12:16.814Z,12.54
2018-12-07T12:14:44.316Z,12.54
2018-12-07T12:17:11.835Z,12.45
2018-12-07T12:19:39.325Z,12.43
2018-12-07T12:22:07.921Z,12.33
2018-12-07T12:24:35.637Z,12.35
2018-12-07T12:27:03.135Z,12.38
2018-12-07T12:29:30.601Z,12.38
2018-12-07T12:31:58.094Z,12.27
2018-12-07T12:34:25.577Z,12.34
2018-12-07T12:36:53.123Z,12.28
2018-12-07T12:39:20.607Z,12.35
2018-12-07T12:58:35.081Z,12.16
2018-12-07T13:01:02.565Z,12.19
2018-12-07T13:03:30.103Z,12.20
2018-12-07T13:05:57.671Z,12.05
2018-12-07T13:08:25.178Z,12.00
2018-12-07T13:10:52.689Z,12.05
2018-12-07T13:13:20.163Z,12.06
2018-12-07T13:15:47.661Z,12.17
2018-12-07T13:18:15.169Z,12.09
2018-12-07T13:20:42.647Z,12.04
2018-12-07T13:23:10.139Z,11.97
2018-12-07T13:25:37.612Z,12.01
2018-12-07T13:28:05.132Z,11.95
2018-12-07T13:30:32.706Z,11.93
2018-12-07T13:33:00.225Z,11.84
2018-12-07T13:35:27.685Z,11.82
2018-12-07T13:37:55.257Z,11.86
2018-12-07T13:40:22.862Z,11.87
2018-12-07T13:42:50.558Z,11.80
2018-12-07T13:45:18.284Z,11.81
2018-12-07T13:47:46.871Z,11.76
2018-12-07T13:50:20.234Z,11.80
2018-12-07T13:52:47.842Z,11.80
2018-12-07T13:55:15.666Z,11.80
2018-12-07T13:57:43.370Z,11.84
2018-12-07T14:00:11.833Z,11.81
2018-12-07T14:02:39.661Z,11.81
2018-12-07T14:05:10.991Z,11.85
2018-12-07T14:07:38.816Z,11.74
2018-12-07T14:10:06.535Z,11.75
2018-12-07T14:12:34.187Z,11.73
2018-12-07T14:15:01.784Z,11.81
2018-12-07T14:17:29.467Z,11.87
2018-12-07T14:19:57.360Z,11.70
2018-12-07T14:22:25.155Z,11.88
2018-12-07T14:24:52.855Z,11.80
2018-12-07T14:27:20.586Z,11.77
2018-12-07T14:29:48.237Z,11.87
2018-12-07T14:32:16.762Z,11.86
2018-12-07T14:34:44.439Z,11.79
2018-12-07T14:37:12.115Z,11.74
2018-12-07T14:39:39.898Z,11.79
2018-12-07T14:42:07.655Z,11.77
2018-12-07T14:44:36.165Z,11.74
2018-12-07T14:47:03.867Z,11.68
2018-12-07T14:49:31.561Z,11.74
2018-12-07T14:51:59.191Z,11.62
2018-12-07T14:54:26.709Z,11.56
2018-12-07T14:56:54.270Z,11.50
2018-12-07T14:59:21.893Z,11.49
2018-12-07T15:01:49.711Z,11.50
2018-12-07T15:04:17.370Z,11.55
2018-12-07T15:06:44.942Z,11.52
2018-12-07T15:09:12.474Z,11.46
2018-12-07T15:11:40.063Z,11.47
2018-12-07T15:14:07.751Z,11.44
2018-12-07T15:16:35.586Z,11.41
2018-12-07T15:19:03.370Z,11.42
2018-12-07T15:21:31.004Z,11.33
2018-12-07T15:23:58.773Z,11.31
2018-12-07T15:26:26.319Z,11.40
2018-12-07T15:28:53.988Z,11.33
2018-12-07T15:31:22.637Z,11.30
2018-12-07T15:33:50.630Z,11.38
2018-12-07T15:36:18.137Z,11.39
2018-12-07T15:38:45.798Z,11.39
2018-12-07T15:41:13.381Z,11.25
2018-12-07T15:43:41.265Z,11.33
2018-12-07T15:46:09.044Z,11.35
2018-12-07T15:48:36.709Z,11.30
2018-12-07T15:51:05.101Z,11.35
2018-12-07T15:53:32.867Z,11.29
2018-12-07T15:56:00.496Z,11.24
2018-12-07T15:58:28.275Z,11.24
2018-12-07T16:00:56.159Z,11.23
2018-12-07T16:03:23.737Z,11.19
2018-12-07T16:05:51.622Z,11.20
2018-12-07T16:08:24.884Z,11.22
2018-12-07T16:10:49.308Z,11.20
2018-12-07T16:13:17.364Z,11.23
2018-12-07T16:15:45.329Z,11.26
2018-12-07T16:18:13.158Z,11.28
2018-12-07T16:20:40.814Z,11.30
2018-12-07T16:23:08.481Z,11.26
2018-12-07T16:25:36.419Z,11.28
2018-12-07T16:28:04.317Z,11.26
2018-12-07T16:30:32.018Z,11.30
2018-12-07T16:32:59.659Z,11.23
2018-12-07T16:35:27.299Z,11.18
2018-12-07T16:37:54.838Z,11.14
2018-12-07T16:40:22.602Z,11.11
2018-12-07T16:42:50.230Z,11.20
2018-12-07T16:45:17.935Z,11.20
2018-12-07T16:50:19.961Z,11.16
2018-12-07T16:52:47.700Z,11.14
2018-12-07T16:55:15.393Z,11.07
2018-12-07T16:57:43.178Z,11.08
2018-12-07T17:00:10.954Z,11.13
2018-12-07T17:02:38.774Z,11.12
2018-12-07T17:05:07.787Z,11.05
2018-12-07T17:07:35.709Z,11.02
2018-12-07T17:10:04.562Z,11.04
2018-12-07T17:12:32.131Z,11.12
2018-12-07T17:14:59.766Z,11.10
2018-12-07T17:17:27.624Z,11.11
2018-12-07T17:19:55.184Z,11.06
2018-12-07T17:22:23.080Z,11.01
2018-12-07T17:24:50.860Z,11.11
2018-12-07T17:27:18.450Z,11.16
2018-12-07T17:29:45.988Z,11.16
2018-12-07T17:32:13.453Z,11.11
2018-12-07T17:34:41.474Z,11.15
2018-12-07T17:37:09.156Z,11.10
2018-12-07T17:39:36.728Z,11.23
2018-12-07T17:42:04.256Z,11.14
2018-12-07T17:44:32.071Z,11.12
2018-12-07T17:46:59.875Z,11.09
2018-12-07T17:49:27.693Z,11.16
2018-12-07T17:51:55.321Z,11.09
2018-12-07T17:54:23.097Z,10.96
2018-12-07T17:56:50.758Z,10.91
2018-12-07T17:59:18.547Z,11.00
2018-12-07T18:01:46.105Z,10.98
2018-12-07T18:04:13.585Z,11.01
2018-12-07T18:06:41.313Z,11.13
2018-12-07T18:09:09.289Z,11.00
2018-12-07T18:11:36.914Z,10.89
2018-12-07T18:14:04.761Z,10.89
2018-12-07T18:16:32.615Z,10.89
2018-12-07T18:19:00.252Z,10.85
2018-12-07T18:21:27.912Z,10.92
2018-12-07T18:23:55.516Z,10.91
2018-12-07T18:26:23.076Z,10.86
2018-12-07T18:28:50.569Z,10.78
2018-12-07T18:31:18.168Z,10.82
2018-12-07T18:33:45.943Z,10.79
2018-12-07T18:36:13.586Z,10.79
2018-12-07T18:38:41.277Z,10.82
2018-12-07T18:41:08.866Z,10.84
2018-12-07T18:43:36.497Z,10.89
2018-12-07T18:46:04.182Z,10.88
2018-12-07T18:48:32.101Z,10.86
2018-12-07T18:50:59.802Z,10.84
2018-12-07T18:53:27.564Z,10.86
2018-12-07T18:55:55.280Z,10.85
2018-12-07T18:58:22.959Z,10.89
2018-12-07T19:00:50.626Z,10.78
2018-12-07T19:03:18.288Z,10.75
2018-12-07T19:05:45.967Z,10.91
2018-12-07T19:08:13.873Z,10.87
2018-12-07T19:10:41.788Z,10.87
2018-12-07T19:13:09.512Z,10.80
2018-12-07T19:15:37.262Z,10.85
2018-12-07T19:18:04.965Z,10.87
2018-12-07T19:20:32.859Z,10.88
2018-12-07T19:23:01.455Z,10.89
2018-12-07T19:25:29.067Z,10.87
2018-12-07T19:27:56.652Z,10.92
2018-12-07T19:30:24.320Z,10.89
2018-12-07T19:32:52.040Z,10.83
2018-12-07T19:35:19.545Z,10.84
2018-12-07T19:37:47.124Z,10.84
2018-12-07T19:40:15.035Z,10.72
2018-12-07T19:42:43.065Z,10.79
2018-12-07T19:45:11.083Z,10.69
2018-12-07T19:47:38.887Z,10.72
2018-12-07T19:50:07.353Z,10.73
2018-12-07T19:52:35.060Z,10.72
2018-12-07T19:55:02.824Z,10.69
2018-12-07T19:57:31.090Z,10.71
2018-12-07T19:59:58.758Z,10.73
2018-12-07T20:02:26.308Z,10.73
2018-12-07T20:04:54.009Z,10.66
2018-12-07T20:07:21.853Z,10.63
2018-12-07T20:09:49.445Z,10.64
2018-12-07T20:12:17.191Z,10.62
2018-12-07T20:14:45.071Z,10.64
2018-12-07T20:17:12.842Z,10.60
2018-12-07T20:19:40.616Z,10.69
2018-12-07T20:22:08.449Z,10.63
2018-12-07T20:24:35.962Z,10.54
2018-12-07T20:27:03.760Z,10.46
2018-12-07T20:29:31.638Z,10.50
2018-12-07T20:31:59.566Z,10.47
2018-12-07T20:34:27.287Z,10.49
2018-12-07T20:36:54.925Z,10.44
2018-12-07T20:39:22.613Z,10.46
2018-12-07T20:41:50.412Z,10.42
2018-12-07T20:44:18.071Z,10.37
2018-12-07T20:46:45.558Z,10.38
2018-12-07T20:49:13.661Z,10.40
2018-12-07T20:51:41.227Z,10.44
2018-12-07T20:54:09.014Z,10.46
2018-12-07T20:56:36.947Z,10.43
2018-12-07T20:59:04.704Z,10.44
2018-12-07T21:01:32.702Z,10.23
2018-12-07T21:04:24.910Z,10.26
2018-12-07T21:10:57.085Z,10.23
2018-12-07T21:14:02.068Z,10.12
2018-12-07T21:16:57.344Z,10.22
2018-12-07T21:19:25.321Z,10.25
2018-12-07T21:21:53.301Z,10.19
2018-12-07T21:24:21.136Z,10.11
2018-12-07T21:26:48.808Z,10.02
2018-12-07T21:29:16.727Z,10.04
2018-12-07T21:31:44.456Z,10.08
2018-12-07T21:34:22.637Z,10.08
2018-12-07T21:36:50.491Z,10.22
2018-12-07T21:39:21.134Z,10.19
2018-12-07T21:41:49.508Z,10.27
2018-12-07T21:44:18.230Z,10.24
2018-12-07T21:46:46.176Z,10.23
2018-12-07T21:49:14.030Z,10.36
2018-12-07T21:51:54.702Z,10.39
2018-12-07T21:54:22.432Z,10.37
2018-12-07T21:56:50.187Z,10.46
2018-12-07T21:59:17.892Z,10.33
2018-12-07T22:01:45.674Z,10.28
2018-12-07T22:04:13.515Z,10.28
2018-12-07T22:06:41.471Z,10.21
2018-12-07T22:09:09.208Z,10.24
2018-12-07T22:11:36.825Z,10.28
2018-12-07T22:14:08.663Z,10.29
2018-12-07T22:16:36.305Z,10.25
2018-12-07T22:19:03.853Z,10.33
2018-12-07T22:21:31.322Z,10.31
2018-12-07T22:23:58.920Z,10.37
2018-12-07T22:26:26.687Z,10.32
2018-12-07T22:28:54.180Z,10.37
2018-12-07T22:31:22.055Z,10.30
2018-12-07T22:33:49.770Z,10.25
2018-12-07T22:36:17.414Z,10.24
2018-12-07T22:38:45.307Z,10.31
2018-12-07T22:41:13.299Z,10.14
2018-12-07T22:43:40.992Z,10.27
2018-12-07T22:46:08.771Z,10.28
2018-12-07T22:48:36.484Z,10.29
2018-12-07T22:53:37.818Z,10.34
2018-12-07T22:56:05.322Z,10.35
2018-12-07T22:58:32.809Z,10.41
2018-12-07T23:01:00.307Z,10.35
2018-12-07T23:03:27.802Z,10.32
2018-12-07T23:05:55.326Z,10.36
2018-12-07T23:08:22.798Z,10.31
2018-12-07T23:10:50.277Z,10.30
2018-12-07T23:13:17.761Z,10.43
2018-12-07T23:15:45.252Z,10.40
2018-12-07T23:18:12.752Z,10.33
2018-12-07T23:20:40.244Z,10.39
2018-12-07T23:23:07.711Z,10.34
2018-12-07T23:25:35.200Z,10.36
2018-12-07T23:28:02.788Z,10.39
2018-12-07T23:30:30.270Z,10.32
2018-12-07T23:32:57.735Z,10.29
2018-12-07T23:35:25.302Z,10.36
2018-12-07T23:37:52.780Z,10.35
2018-12-07T23:40:20.299Z,10.32
2018-12-07T23:42:47.798Z,10.32
2018-12-07T23:45:15.388Z,10.29
2018-12-07T23:47:42.864Z,10.26
2018-12-07T23:50:10.552Z,10.22
2018-12-07T23:52:38.090Z,10.14
2018-12-07T23:55:05.579Z,10.20
2018-12-07T23:57:33.054Z,10.19
